sensor_id;sensor_type;location;lat;lon;timestamp;P1;durP1;ratioP1;P2;durP2;ratioP2
15022;SDS011;19850;49.576;10.880;2022-11-23T00:01:34;6.43;;;3.10;;
15022;SDS011;19850;49.576;10.880;2022-11-23T00:05:37;8.00;;;3.90;;
15022;SDS011;19850;49.576;10.880;2022-11-23T00:09:41;9.23;;;3.50;;
15022;SDS011;19850;49.576;10.880;2022-11-23T00:13:44;8.97;;;4.50;;
15022;SDS011;19850;49.576;10.880;2022-11-23T00:17:47;8.03;;;4.00;;
15022;SDS011;19850;49.576;10.880;2022-11-23T00:21:50;9.20;;;4.30;;
15022;SDS011;19850;49.576;10.880;2022-11-23T00:25:54;10.23;;;5.00;;
15022;SDS011;19850;49.576;10.880;2022-11-23T00:29:57;8.67;;;5.07;;
15022;SDS011;19850;49.576;10.880;2022-11-23T00:33:59;9.23;;;4.40;;
15022;SDS011;19850;49.576;10.880;2022-11-23T00:38:02;9.67;;;4.37;;
15022;SDS011;19850;49.576;10.880;2022-11-23T00:42:06;11.80;;;4.90;;
15022;SDS011;19850;49.576;10.880;2022-11-23T00:46:09;9.93;;;4.90;;
15022;SDS011;19850;49.576;10.880;2022-11-23T00:50:15;8.50;;;3.53;;
15022;SDS011;19850;49.576;10.880;2022-11-23T00:54:18;9.13;;;4.23;;
15022;SDS011;19850;49.576;10.880;2022-11-23T00:58:22;4.73;;;3.07;;
15022;SDS011;19850;49.576;10.880;2022-11-23T01:02:25;5.17;;;2.60;;
15022;SDS011;19850;49.576;10.880;2022-11-23T01:06:28;6.47;;;2.90;;
15022;SDS011;19850;49.576;10.880;2022-11-23T01:10:32;4.67;;;2.47;;
15022;SDS011;19850;49.576;10.880;2022-11-23T01:14:37;5.60;;;2.83;;
15022;SDS011;19850;49.576;10.880;2022-11-23T01:18:40;5.97;;;2.80;;
15022;SDS011;19850;49.576;10.880;2022-11-23T01:22:42;4.60;;;2.70;;
15022;SDS011;19850;49.576;10.880;2022-11-23T01:26:49;4.47;;;2.60;;
15022;SDS011;19850;49.576;10.880;2022-11-23T01:30:53;5.43;;;2.83;;
15022;SDS011;19850;49.576;10.880;2022-11-23T01:34:56;6.20;;;3.00;;
15022;SDS011;19850;49.576;10.880;2022-11-23T01:38:59;8.03;;;2.80;;
15022;SDS011;19850;49.576;10.880;2022-11-23T01:43:05;4.57;;;2.50;;
15022;SDS011;19850;49.576;10.880;2022-11-23T01:47:13;5.00;;;2.60;;
15022;SDS011;19850;49.576;10.880;2022-11-23T01:51:16;5.17;;;2.83;;
15022;SDS011;19850;49.576;10.880;2022-11-23T01:55:20;5.07;;;3.30;;
15022;SDS011;19850;49.576;10.880;2022-11-23T01:59:23;7.17;;;2.90;;
15022;SDS011;19850;49.576;10.880;2022-11-23T02:03:28;5.17;;;3.13;;
15022;SDS011;19850;49.576;10.880;2022-11-23T02:07:32;6.37;;;3.00;;
15022;SDS011;19850;49.576;10.880;2022-11-23T02:11:35;6.43;;;3.20;;
15022;SDS011;19850;49.576;10.880;2022-11-23T02:15:40;3.60;;;2.90;;
15022;SDS011;19850;49.576;10.880;2022-11-23T02:19:48;5.97;;;2.93;;
15022;SDS011;19850;49.576;10.880;2022-11-23T02:23:58;5.50;;;2.80;;
15022;SDS011;19850;49.576;10.880;2022-11-23T02:28:04;5.13;;;2.73;;
15022;SDS011;19850;49.576;10.880;2022-11-23T02:32:07;4.90;;;2.60;;
15022;SDS011;19850;49.576;10.880;2022-11-23T02:36:20;6.03;;;2.60;;
15022;SDS011;19850;49.576;10.880;2022-11-23T02:40:31;3.50;;;2.33;;
15022;SDS011;19850;49.576;10.880;2022-11-23T02:44:38;4.40;;;3.03;;
15022;SDS011;19850;49.576;10.880;2022-11-23T02:48:44;6.00;;;3.37;;
15022;SDS011;19850;49.576;10.880;2022-11-23T02:52:46;6.40;;;3.33;;
15022;SDS011;19850;49.576;10.880;2022-11-23T02:56:49;6.47;;;3.37;;
15022;SDS011;19850;49.576;10.880;2022-11-23T03:00:53;8.37;;;3.53;;
15022;SDS011;19850;49.576;10.880;2022-11-23T03:04:56;5.03;;;3.50;;
15022;SDS011;19850;49.576;10.880;2022-11-23T03:08:59;6.10;;;3.70;;
15022;SDS011;19850;49.576;10.880;2022-11-23T03:13:04;7.27;;;3.20;;
15022;SDS011;19850;49.576;10.880;2022-11-23T03:17:08;5.80;;;2.87;;
15022;SDS011;19850;49.576;10.880;2022-11-23T03:21:11;6.37;;;2.93;;
15022;SDS011;19850;49.576;10.880;2022-11-23T03:25:14;4.73;;;2.83;;
15022;SDS011;19850;49.576;10.880;2022-11-23T03:29:17;3.80;;;2.77;;
15022;SDS011;19850;49.576;10.880;2022-11-23T03:33:21;4.80;;;3.10;;
15022;SDS011;19850;49.576;10.880;2022-11-23T03:37:24;5.63;;;2.90;;
15022;SDS011;19850;49.576;10.880;2022-11-23T03:41:26;4.27;;;2.60;;
15022;SDS011;19850;49.576;10.880;2022-11-23T03:45:29;5.90;;;3.07;;
15022;SDS011;19850;49.576;10.880;2022-11-23T03:49:33;5.10;;;3.10;;
15022;SDS011;19850;49.576;10.880;2022-11-23T03:53:36;3.07;;;2.67;;
15022;SDS011;19850;49.576;10.880;2022-11-23T03:57:39;5.43;;;3.10;;
15022;SDS011;19850;49.576;10.880;2022-11-23T04:01:42;4.67;;;2.70;;
15022;SDS011;19850;49.576;10.880;2022-11-23T04:05:46;5.57;;;3.00;;
15022;SDS011;19850;49.576;10.880;2022-11-23T04:09:49;7.67;;;2.90;;
15022;SDS011;19850;49.576;10.880;2022-11-23T04:13:51;5.63;;;2.70;;
15022;SDS011;19850;49.576;10.880;2022-11-23T04:17:54;7.27;;;3.00;;
15022;SDS011;19850;49.576;10.880;2022-11-23T04:21:58;5.60;;;3.23;;
15022;SDS011;19850;49.576;10.880;2022-11-23T04:26:01;4.23;;;3.10;;
15022;SDS011;19850;49.576;10.880;2022-11-23T04:30:04;8.97;;;3.33;;
15022;SDS011;19850;49.576;10.880;2022-11-23T04:34:08;5.27;;;3.27;;
15022;SDS011;19850;49.576;10.880;2022-11-23T04:38:12;6.20;;;3.77;;
15022;SDS011;19850;49.576;10.880;2022-11-23T04:42:15;6.87;;;4.07;;
15022;SDS011;19850;49.576;10.880;2022-11-23T04:46:18;7.83;;;3.93;;
15022;SDS011;19850;49.576;10.880;2022-11-23T04:50:20;7.73;;;3.73;;
15022;SDS011;19850;49.576;10.880;2022-11-23T04:54:25;6.47;;;3.80;;
15022;SDS011;19850;49.576;10.880;2022-11-23T04:58:27;7.97;;;3.30;;
15022;SDS011;19850;49.576;10.880;2022-11-23T05:02:34;9.43;;;3.47;;
15022;SDS011;19850;49.576;10.880;2022-11-23T05:06:37;4.20;;;2.87;;
15022;SDS011;19850;49.576;10.880;2022-11-23T05:10:41;7.13;;;3.27;;
15022;SDS011;19850;49.576;10.880;2022-11-23T05:14:44;7.67;;;3.30;;
15022;SDS011;19850;49.576;10.880;2022-11-23T05:18:47;6.33;;;3.40;;
15022;SDS011;19850;49.576;10.880;2022-11-23T05:22:50;5.03;;;3.30;;
15022;SDS011;19850;49.576;10.880;2022-11-23T05:26:54;7.47;;;3.57;;
15022;SDS011;19850;49.576;10.880;2022-11-23T05:30:57;5.43;;;3.00;;
15022;SDS011;19850;49.576;10.880;2022-11-23T05:34:59;7.30;;;3.50;;
15022;SDS011;19850;49.576;10.880;2022-11-23T05:39:02;5.80;;;2.83;;
15022;SDS011;19850;49.576;10.880;2022-11-23T05:43:06;7.70;;;3.30;;
15022;SDS011;19850;49.576;10.880;2022-11-23T05:47:09;5.60;;;3.23;;
15022;SDS011;19850;49.576;10.880;2022-11-23T05:51:11;6.70;;;3.40;;
15022;SDS011;19850;49.576;10.880;2022-11-23T05:55:14;7.00;;;3.73;;
15022;SDS011;19850;49.576;10.880;2022-11-23T05:59:18;9.30;;;4.87;;
15022;SDS011;19850;49.576;10.880;2022-11-23T06:03:21;8.13;;;4.80;;
15022;SDS011;19850;49.576;10.880;2022-11-23T06:07:24;8.27;;;5.40;;
15022;SDS011;19850;49.576;10.880;2022-11-23T06:11:27;10.33;;;5.83;;
15022;SDS011;19850;49.576;10.880;2022-11-23T06:15:33;12.50;;;6.03;;
15022;SDS011;19850;49.576;10.880;2022-11-23T06:19:35;11.00;;;5.13;;
15022;SDS011;19850;49.576;10.880;2022-11-23T06:23:38;9.63;;;5.43;;
15022;SDS011;19850;49.576;10.880;2022-11-23T06:27:41;10.70;;;4.70;;
15022;SDS011;19850;49.576;10.880;2022-11-23T06:31:45;10.63;;;5.07;;
15022;SDS011;19850;49.576;10.880;2022-11-23T06:35:52;8.97;;;4.70;;
15022;SDS011;19850;49.576;10.880;2022-11-23T06:39:55;9.17;;;5.00;;
15022;SDS011;19850;49.576;10.880;2022-11-23T06:43:58;11.00;;;5.50;;
15022;SDS011;19850;49.576;10.880;2022-11-23T06:48:02;9.07;;;5.00;;
15022;SDS011;19850;49.576;10.880;2022-11-23T06:52:05;9.20;;;5.80;;
15022;SDS011;19850;49.576;10.880;2022-11-23T06:56:08;10.23;;;6.33;;
15022;SDS011;19850;49.576;10.880;2022-11-23T07:00:11;14.00;;;9.30;;
15022;SDS011;19850;49.576;10.880;2022-11-23T07:04:16;14.30;;;9.77;;
15022;SDS011;19850;49.576;10.880;2022-11-23T07:08:19;10.30;;;6.47;;
15022;SDS011;19850;49.576;10.880;2022-11-23T07:12:22;8.70;;;6.17;;
15022;SDS011;19850;49.576;10.880;2022-11-23T07:16:25;8.03;;;4.97;;
15022;SDS011;19850;49.576;10.880;2022-11-23T07:20:29;6.53;;;4.07;;
15022;SDS011;19850;49.576;10.880;2022-11-23T07:24:32;8.83;;;3.87;;
15022;SDS011;19850;49.576;10.880;2022-11-23T07:28:42;8.07;;;4.40;;
15022;SDS011;19850;49.576;10.880;2022-11-23T07:32:45;8.03;;;4.50;;
15022;SDS011;19850;49.576;10.880;2022-11-23T07:36:50;8.93;;;4.83;;
15022;SDS011;19850;49.576;10.880;2022-11-23T07:40:52;8.77;;;4.47;;
15022;SDS011;19850;49.576;10.880;2022-11-23T07:44:55;8.13;;;4.63;;
15022;SDS011;19850;49.576;10.880;2022-11-23T07:48:58;8.17;;;4.20;;
15022;SDS011;19850;49.576;10.880;2022-11-23T07:53:03;9.90;;;4.80;;
15022;SDS011;19850;49.576;10.880;2022-11-23T07:57:07;6.43;;;4.50;;
15022;SDS011;19850;49.576;10.880;2022-11-23T08:01:13;8.57;;;4.77;;
15022;SDS011;19850;49.576;10.880;2022-11-23T08:05:18;6.67;;;4.20;;
15022;SDS011;19850;49.576;10.880;2022-11-23T08:09:23;7.77;;;4.30;;
15022;SDS011;19850;49.576;10.880;2022-11-23T08:13:25;8.20;;;4.33;;
15022;SDS011;19850;49.576;10.880;2022-11-23T08:17:28;7.70;;;4.17;;
15022;SDS011;19850;49.576;10.880;2022-11-23T08:21:31;8.17;;;5.07;;
15022;SDS011;19850;49.576;10.880;2022-11-23T08:25:35;7.83;;;5.03;;
15022;SDS011;19850;49.576;10.880;2022-11-23T08:29:38;8.73;;;4.87;;
15022;SDS011;19850;49.576;10.880;2022-11-23T08:33:41;7.43;;;4.33;;
15022;SDS011;19850;49.576;10.880;2022-11-23T08:37:44;7.47;;;4.23;;
15022;SDS011;19850;49.576;10.880;2022-11-23T08:41:48;7.67;;;4.33;;
15022;SDS011;19850;49.576;10.880;2022-11-23T08:45:52;7.83;;;4.67;;
15022;SDS011;19850;49.576;10.880;2022-11-23T08:50:03;7.33;;;4.13;;
15022;SDS011;19850;49.576;10.880;2022-11-23T08:54:07;6.50;;;4.03;;
15022;SDS011;19850;49.576;10.880;2022-11-23T08:58:11;6.00;;;4.20;;
15022;SDS011;19850;49.576;10.880;2022-11-23T09:02:14;8.93;;;4.23;;
15022;SDS011;19850;49.576;10.880;2022-11-23T09:06:16;7.87;;;3.80;;
15022;SDS011;19850;49.576;10.880;2022-11-23T09:10:19;7.27;;;4.27;;
15022;SDS011;19850;49.576;10.880;2022-11-23T09:14:23;9.60;;;4.40;;
15022;SDS011;19850;49.576;10.880;2022-11-23T09:18:28;7.93;;;4.43;;
15022;SDS011;19850;49.576;10.880;2022-11-23T09:22:31;8.80;;;4.33;;
15022;SDS011;19850;49.576;10.880;2022-11-23T09:26:34;6.90;;;4.10;;
15022;SDS011;19850;49.576;10.880;2022-11-23T09:30:39;7.17;;;3.93;;
15022;SDS011;19850;49.576;10.880;2022-11-23T09:34:42;10.47;;;4.67;;
15022;SDS011;19850;49.576;10.880;2022-11-23T09:38:45;8.77;;;4.73;;
15022;SDS011;19850;49.576;10.880;2022-11-23T09:43:02;8.27;;;4.50;;
15022;SDS011;19850;49.576;10.880;2022-11-23T09:47:23;7.13;;;4.30;;
15022;SDS011;19850;49.576;10.880;2022-11-23T09:51:36;9.93;;;4.13;;
15022;SDS011;19850;49.576;10.880;2022-11-23T09:55:40;9.00;;;4.13;;
15022;SDS011;19850;49.576;10.880;2022-11-23T09:59:45;8.50;;;3.80;;
15022;SDS011;19850;49.576;10.880;2022-11-23T10:03:53;7.03;;;3.80;;
15022;SDS011;19850;49.576;10.880;2022-11-23T10:07:59;8.13;;;4.33;;
15022;SDS011;19850;49.576;10.880;2022-11-23T10:12:10;6.73;;;3.67;;
15022;SDS011;19850;49.576;10.880;2022-11-23T10:16:21;6.00;;;3.47;;
15022;SDS011;19850;49.576;10.880;2022-11-23T10:20:36;8.90;;;4.40;;
15022;SDS011;19850;49.576;10.880;2022-11-23T10:24:45;10.00;;;4.20;;
15022;SDS011;19850;49.576;10.880;2022-11-23T10:28:50;5.50;;;3.60;;
15022;SDS011;19850;49.576;10.880;2022-11-23T10:32:57;8.23;;;4.00;;
15022;SDS011;19850;49.576;10.880;2022-11-23T10:37:06;9.03;;;3.93;;
15022;SDS011;19850;49.576;10.880;2022-11-23T10:41:10;7.33;;;3.70;;
15022;SDS011;19850;49.576;10.880;2022-11-23T10:45:17;7.83;;;3.80;;
15022;SDS011;19850;49.576;10.880;2022-11-23T10:49:23;4.77;;;3.47;;
15022;SDS011;19850;49.576;10.880;2022-11-23T10:53:27;9.57;;;4.00;;
15022;SDS011;19850;49.576;10.880;2022-11-23T10:57:31;5.17;;;3.60;;
15022;SDS011;19850;49.576;10.880;2022-11-23T11:01:37;9.47;;;3.50;;
15022;SDS011;19850;49.576;10.880;2022-11-23T11:05:48;5.60;;;3.30;;
15022;SDS011;19850;49.576;10.880;2022-11-23T11:14:35;6.77;;;3.20;;
15022;SDS011;19850;49.576;10.880;2022-11-23T11:18:43;10.80;;;3.13;;
15022;SDS011;19850;49.576;10.880;2022-11-23T11:22:46;5.93;;;3.13;;
15022;SDS011;19850;49.576;10.880;2022-11-23T11:26:51;6.80;;;3.23;;
15022;SDS011;19850;49.576;10.880;2022-11-23T11:30:56;4.93;;;2.53;;
15022;SDS011;19850;49.576;10.880;2022-11-23T11:35:08;5.00;;;2.70;;
15022;SDS011;19850;49.576;10.880;2022-11-23T11:39:21;7.77;;;2.80;;
15022;SDS011;19850;49.576;10.880;2022-11-23T11:43:28;5.33;;;2.73;;
15022;SDS011;19850;49.576;10.880;2022-11-23T11:47:40;7.43;;;2.87;;
15022;SDS011;19850;49.576;10.880;2022-11-23T11:51:45;10.90;;;3.07;;
15022;SDS011;19850;49.576;10.880;2022-11-23T11:55:51;5.90;;;2.47;;
15022;SDS011;19850;49.576;10.880;2022-11-23T11:59:57;8.07;;;2.57;;
15022;SDS011;19850;49.576;10.880;2022-11-23T12:04:04;8.10;;;2.80;;
15022;SDS011;19850;49.576;10.880;2022-11-23T12:08:10;5.17;;;2.33;;
15022;SDS011;19850;49.576;10.880;2022-11-23T12:12:15;8.03;;;2.80;;
15022;SDS011;19850;49.576;10.880;2022-11-23T12:16:23;7.27;;;2.80;;
15022;SDS011;19850;49.576;10.880;2022-11-23T12:20:29;5.57;;;2.43;;
15022;SDS011;19850;49.576;10.880;2022-11-23T12:24:42;7.70;;;2.87;;
15022;SDS011;19850;49.576;10.880;2022-11-23T12:28:56;4.87;;;2.13;;
15022;SDS011;19850;49.576;10.880;2022-11-23T12:33:17;8.47;;;2.90;;
15022;SDS011;19850;49.576;10.880;2022-11-23T12:37:33;6.50;;;2.50;;
15022;SDS011;19850;49.576;10.880;2022-11-23T12:41:42;5.80;;;2.13;;
15022;SDS011;19850;49.576;10.880;2022-11-23T12:50:16;4.80;;;2.20;;
15022;SDS011;19850;49.576;10.880;2022-11-23T12:54:31;5.47;;;2.30;;
15022;SDS011;19850;49.576;10.880;2022-11-23T12:58:40;9.23;;;2.43;;
15022;SDS011;19850;49.576;10.880;2022-11-23T13:03:01;5.70;;;2.20;;
15022;SDS011;19850;49.576;10.880;2022-11-23T13:07:33;4.30;;;2.30;;
15022;SDS011;19850;49.576;10.880;2022-11-23T13:11:57;5.30;;;2.03;;
15022;SDS011;19850;49.576;10.880;2022-11-23T13:20:47;4.47;;;1.60;;
15022;SDS011;19850;49.576;10.880;2022-11-23T13:25:17;5.23;;;1.67;;
15022;SDS011;19850;49.576;10.880;2022-11-23T13:33:49;4.30;;;1.57;;
15022;SDS011;19850;49.576;10.880;2022-11-23T13:42:21;6.07;;;1.90;;
15022;SDS011;19850;49.576;10.880;2022-11-23T13:46:24;7.10;;;2.20;;
15022;SDS011;19850;49.576;10.880;2022-11-23T13:50:29;5.47;;;1.97;;
15022;SDS011;19850;49.576;10.880;2022-11-23T13:54:32;4.13;;;2.00;;
15022;SDS011;19850;49.576;10.880;2022-11-23T13:58:37;5.90;;;1.93;;
15022;SDS011;19850;49.576;10.880;2022-11-23T14:02:41;5.97;;;2.00;;
15022;SDS011;19850;49.576;10.880;2022-11-23T14:06:44;4.70;;;1.63;;
15022;SDS011;19850;49.576;10.880;2022-11-23T14:10:48;5.97;;;1.70;;
15022;SDS011;19850;49.576;10.880;2022-11-23T14:14:54;5.80;;;1.80;;
15022;SDS011;19850;49.576;10.880;2022-11-23T14:19:01;4.43;;;1.93;;
15022;SDS011;19850;49.576;10.880;2022-11-23T14:23:15;5.13;;;2.10;;
15022;SDS011;19850;49.576;10.880;2022-11-23T14:27:31;6.40;;;2.33;;
15022;SDS011;19850;49.576;10.880;2022-11-23T14:31:55;3.90;;;2.00;;
15022;SDS011;19850;49.576;10.880;2022-11-23T14:36:18;3.50;;;2.20;;
15022;SDS011;19850;49.576;10.880;2022-11-23T14:40:28;5.93;;;2.43;;
15022;SDS011;19850;49.576;10.880;2022-11-23T14:44:32;7.37;;;2.50;;
15022;SDS011;19850;49.576;10.880;2022-11-23T14:48:40;8.13;;;2.30;;
15022;SDS011;19850;49.576;10.880;2022-11-23T14:52:43;4.23;;;1.87;;
15022;SDS011;19850;49.576;10.880;2022-11-23T14:56:47;3.87;;;1.70;;
15022;SDS011;19850;49.576;10.880;2022-11-23T15:00:50;5.43;;;1.90;;
15022;SDS011;19850;49.576;10.880;2022-11-23T15:04:57;3.27;;;1.73;;
15022;SDS011;19850;49.576;10.880;2022-11-23T15:09:06;5.10;;;1.60;;
15022;SDS011;19850;49.576;10.880;2022-11-23T15:13:17;5.50;;;1.80;;
15022;SDS011;19850;49.576;10.880;2022-11-23T15:17:22;4.37;;;2.40;;
15022;SDS011;19850;49.576;10.880;2022-11-23T15:21:27;3.77;;;1.93;;
15022;SDS011;19850;49.576;10.880;2022-11-23T15:25:30;6.57;;;2.43;;
15022;SDS011;19850;49.576;10.880;2022-11-23T15:29:34;7.00;;;2.80;;
15022;SDS011;19850;49.576;10.880;2022-11-23T15:33:38;10.73;;;5.90;;
15022;SDS011;19850;49.576;10.880;2022-11-23T15:37:43;6.97;;;3.73;;
15022;SDS011;19850;49.576;10.880;2022-11-23T15:41:47;7.73;;;3.97;;
15022;SDS011;19850;49.576;10.880;2022-11-23T15:46:01;5.87;;;3.43;;
15022;SDS011;19850;49.576;10.880;2022-11-23T15:50:07;10.47;;;4.87;;
15022;SDS011;19850;49.576;10.880;2022-11-23T15:54:14;10.73;;;5.60;;
15022;SDS011;19850;49.576;10.880;2022-11-23T15:58:20;9.10;;;4.40;;
15022;SDS011;19850;49.576;10.880;2022-11-23T16:02:25;10.37;;;4.73;;
15022;SDS011;19850;49.576;10.880;2022-11-23T16:06:34;6.27;;;4.20;;
15022;SDS011;19850;49.576;10.880;2022-11-23T16:10:44;10.13;;;4.73;;
15022;SDS011;19850;49.576;10.880;2022-11-23T16:14:56;7.83;;;5.07;;
15022;SDS011;19850;49.576;10.880;2022-11-23T16:19:00;7.83;;;4.93;;
15022;SDS011;19850;49.576;10.880;2022-11-23T16:23:02;11.93;;;6.47;;
15022;SDS011;19850;49.576;10.880;2022-11-23T16:27:13;9.07;;;6.00;;
15022;SDS011;19850;49.576;10.880;2022-11-23T16:31:24;12.27;;;7.97;;
15022;SDS011;19850;49.576;10.880;2022-11-23T16:35:29;11.60;;;6.90;;
15022;SDS011;19850;49.576;10.880;2022-11-23T16:39:32;10.30;;;6.50;;
15022;SDS011;19850;49.576;10.880;2022-11-23T16:43:36;9.50;;;6.47;;
15022;SDS011;19850;49.576;10.880;2022-11-23T16:47:49;8.30;;;5.80;;
15022;SDS011;19850;49.576;10.880;2022-11-23T16:51:54;12.63;;;5.77;;
15022;SDS011;19850;49.576;10.880;2022-11-23T16:55:58;13.63;;;9.57;;
15022;SDS011;19850;49.576;10.880;2022-11-23T17:00:04;19.23;;;13.87;;
15022;SDS011;19850;49.576;10.880;2022-11-23T17:04:14;11.07;;;7.53;;
15022;SDS011;19850;49.576;10.880;2022-11-23T17:08:17;12.47;;;7.97;;
15022;SDS011;19850;49.576;10.880;2022-11-23T17:12:24;12.93;;;7.30;;
15022;SDS011;19850;49.576;10.880;2022-11-23T17:16:28;10.87;;;7.13;;
15022;SDS011;19850;49.576;10.880;2022-11-23T17:20:31;14.53;;;8.27;;
15022;SDS011;19850;49.576;10.880;2022-11-23T17:24:34;14.13;;;8.20;;
15022;SDS011;19850;49.576;10.880;2022-11-23T17:28:37;13.93;;;8.00;;
15022;SDS011;19850;49.576;10.880;2022-11-23T17:32:42;14.17;;;6.70;;
15022;SDS011;19850;49.576;10.880;2022-11-23T17:36:45;10.93;;;7.23;;
15022;SDS011;19850;49.576;10.880;2022-11-23T17:40:48;10.87;;;7.03;;
15022;SDS011;19850;49.576;10.880;2022-11-23T17:44:51;11.00;;;7.60;;
15022;SDS011;19850;49.576;10.880;2022-11-23T17:48:56;13.17;;;8.33;;
15022;SDS011;19850;49.576;10.880;2022-11-23T17:52:59;12.73;;;9.07;;
15022;SDS011;19850;49.576;10.880;2022-11-23T17:57:02;17.57;;;11.50;;
15022;SDS011;19850;49.576;10.880;2022-11-23T18:01:07;18.30;;;11.27;;
15022;SDS011;19850;49.576;10.880;2022-11-23T18:05:14;20.60;;;11.97;;
15022;SDS011;19850;49.576;10.880;2022-11-23T18:09:22;22.50;;;13.27;;
15022;SDS011;19850;49.576;10.880;2022-11-23T18:13:25;19.73;;;12.20;;
15022;SDS011;19850;49.576;10.880;2022-11-23T18:17:27;17.60;;;11.87;;
15022;SDS011;19850;49.576;10.880;2022-11-23T18:21:31;15.57;;;10.80;;
15022;SDS011;19850;49.576;10.880;2022-11-23T18:25:34;15.67;;;11.90;;
15022;SDS011;19850;49.576;10.880;2022-11-23T18:29:37;14.87;;;11.97;;
15022;SDS011;19850;49.576;10.880;2022-11-23T18:33:40;20.00;;;11.93;;
15022;SDS011;19850;49.576;10.880;2022-11-23T18:37:44;16.10;;;12.10;;
15022;SDS011;19850;49.576;10.880;2022-11-23T18:41:47;15.00;;;11.00;;
15022;SDS011;19850;49.576;10.880;2022-11-23T18:45:50;13.83;;;10.07;;
15022;SDS011;19850;49.576;10.880;2022-11-23T18:49:52;14.23;;;9.10;;
15022;SDS011;19850;49.576;10.880;2022-11-23T18:54:03;11.67;;;5.47;;
15022;SDS011;19850;49.576;10.880;2022-11-23T18:58:06;8.53;;;6.27;;
15022;SDS011;19850;49.576;10.880;2022-11-23T19:02:10;12.13;;;8.63;;
15022;SDS011;19850;49.576;10.880;2022-11-23T19:06:14;12.57;;;8.83;;
15022;SDS011;19850;49.576;10.880;2022-11-23T19:10:19;13.47;;;9.23;;
15022;SDS011;19850;49.576;10.880;2022-11-23T19:14:22;13.97;;;9.70;;
15022;SDS011;19850;49.576;10.880;2022-11-23T19:18:25;11.43;;;8.73;;
15022;SDS011;19850;49.576;10.880;2022-11-23T19:22:28;13.30;;;8.83;;
15022;SDS011;19850;49.576;10.880;2022-11-23T19:26:35;13.93;;;11.10;;
15022;SDS011;19850;49.576;10.880;2022-11-23T19:30:38;12.67;;;10.50;;
15022;SDS011;19850;49.576;10.880;2022-11-23T19:34:41;13.40;;;9.80;;
15022;SDS011;19850;49.576;10.880;2022-11-23T19:38:44;12.77;;;9.07;;
15022;SDS011;19850;49.576;10.880;2022-11-23T19:42:49;12.60;;;9.17;;
15022;SDS011;19850;49.576;10.880;2022-11-23T19:46:52;11.93;;;8.30;;
15022;SDS011;19850;49.576;10.880;2022-11-23T19:50:55;11.53;;;8.70;;
15022;SDS011;19850;49.576;10.880;2022-11-23T19:54:58;13.10;;;8.53;;
15022;SDS011;19850;49.576;10.880;2022-11-23T19:59:02;12.90;;;9.27;;
15022;SDS011;19850;49.576;10.880;2022-11-23T20:03:05;11.27;;;9.03;;
15022;SDS011;19850;49.576;10.880;2022-11-23T20:07:08;14.63;;;10.67;;
15022;SDS011;19850;49.576;10.880;2022-11-23T20:11:13;13.50;;;9.63;;
15022;SDS011;19850;49.576;10.880;2022-11-23T20:15:18;13.37;;;9.50;;
15022;SDS011;19850;49.576;10.880;2022-11-23T20:19:21;13.53;;;10.07;;
15022;SDS011;19850;49.576;10.880;2022-11-23T20:23:24;11.23;;;9.67;;
15022;SDS011;19850;49.576;10.880;2022-11-23T20:27:28;13.03;;;9.80;;
15022;SDS011;19850;49.576;10.880;2022-11-23T20:31:33;13.63;;;9.87;;
15022;SDS011;19850;49.576;10.880;2022-11-23T20:35:36;17.00;;;12.53;;
15022;SDS011;19850;49.576;10.880;2022-11-23T20:39:39;15.63;;;11.33;;
15022;SDS011;19850;49.576;10.880;2022-11-23T20:43:42;13.23;;;10.13;;
15022;SDS011;19850;49.576;10.880;2022-11-23T20:47:46;12.67;;;10.23;;
15022;SDS011;19850;49.576;10.880;2022-11-23T20:51:53;13.87;;;10.00;;
15022;SDS011;19850;49.576;10.880;2022-11-23T20:56:00;12.10;;;10.10;;
15022;SDS011;19850;49.576;10.880;2022-11-23T21:00:04;11.13;;;10.03;;
15022;SDS011;19850;49.576;10.880;2022-11-23T21:04:08;11.47;;;10.00;;
15022;SDS011;19850;49.576;10.880;2022-11-23T21:08:11;12.40;;;10.37;;
15022;SDS011;19850;49.576;10.880;2022-11-23T21:12:24;16.47;;;13.47;;
15022;SDS011;19850;49.576;10.880;2022-11-23T21:16:51;14.07;;;11.57;;
15022;SDS011;19850;49.576;10.880;2022-11-23T21:20:57;13.77;;;12.10;;
15022;SDS011;19850;49.576;10.880;2022-11-23T21:25:00;14.53;;;11.57;;
15022;SDS011;19850;49.576;10.880;2022-11-23T21:29:03;20.07;;;15.43;;
15022;SDS011;19850;49.576;10.880;2022-11-23T21:33:09;16.97;;;12.80;;
15022;SDS011;19850;49.576;10.880;2022-11-23T21:37:14;12.90;;;11.03;;
15022;SDS011;19850;49.576;10.880;2022-11-23T21:41:16;12.87;;;11.07;;
15022;SDS011;19850;49.576;10.880;2022-11-23T21:45:19;12.80;;;10.77;;
15022;SDS011;19850;49.576;10.880;2022-11-23T21:49:22;14.47;;;11.40;;
15022;SDS011;19850;49.576;10.880;2022-11-23T21:53:29;14.37;;;11.27;;
15022;SDS011;19850;49.576;10.880;2022-11-23T21:57:33;18.80;;;12.97;;
15022;SDS011;19850;49.576;10.880;2022-11-23T22:01:36;15.30;;;11.60;;
15022;SDS011;19850;49.576;10.880;2022-11-23T22:05:39;12.93;;;10.90;;
15022;SDS011;19850;49.576;10.880;2022-11-23T22:09:43;14.70;;;12.13;;
15022;SDS011;19850;49.576;10.880;2022-11-23T22:13:46;16.17;;;12.20;;
15022;SDS011;19850;49.576;10.880;2022-11-23T22:17:49;15.23;;;11.37;;
15022;SDS011;19850;49.576;10.880;2022-11-23T22:21:51;12.57;;;11.13;;
15022;SDS011;19850;49.576;10.880;2022-11-23T22:25:56;12.07;;;10.83;;
15022;SDS011;19850;49.576;10.880;2022-11-23T22:30:02;11.83;;;10.63;;
15022;SDS011;19850;49.576;10.880;2022-11-23T22:34:06;14.90;;;13.23;;
15022;SDS011;19850;49.576;10.880;2022-11-23T22:38:10;14.27;;;10.80;;
15022;SDS011;19850;49.576;10.880;2022-11-23T22:42:14;12.70;;;11.27;;
15022;SDS011;19850;49.576;10.880;2022-11-23T22:46:18;14.53;;;11.50;;
15022;SDS011;19850;49.576;10.880;2022-11-23T22:50:22;14.50;;;11.40;;
15022;SDS011;19850;49.576;10.880;2022-11-23T22:54:25;13.07;;;10.90;;
15022;SDS011;19850;49.576;10.880;2022-11-23T22:58:30;14.33;;;12.03;;
15022;SDS011;19850;49.576;10.880;2022-11-23T23:02:33;13.17;;;11.10;;
15022;SDS011;19850;49.576;10.880;2022-11-23T23:06:36;12.40;;;10.73;;
15022;SDS011;19850;49.576;10.880;2022-11-23T23:10:39;13.37;;;11.07;;
15022;SDS011;19850;49.576;10.880;2022-11-23T23:14:43;12.27;;;10.97;;
15022;SDS011;19850;49.576;10.880;2022-11-23T23:18:45;14.13;;;10.87;;
15022;SDS011;19850;49.576;10.880;2022-11-23T23:22:48;10.87;;;9.40;;
15022;SDS011;19850;49.576;10.880;2022-11-23T23:26:51;10.67;;;9.57;;
15022;SDS011;19850;49.576;10.880;2022-11-23T23:30:59;10.83;;;8.90;;
15022;SDS011;19850;49.576;10.880;2022-11-23T23:35:02;9.27;;;8.37;;
15022;SDS011;19850;49.576;10.880;2022-11-23T23:39:05;10.27;;;8.63;;
15022;SDS011;19850;49.576;10.880;2022-11-23T23:43:07;9.50;;;8.30;;
15022;SDS011;19850;49.576;10.880;2022-11-23T23:47:11;8.20;;;7.40;;
15022;SDS011;19850;49.576;10.880;2022-11-23T23:51:15;9.00;;;7.20;;
15022;SDS011;19850;49.576;10.880;2022-11-23T23:55:18;8.03;;;6.40;;
15022;SDS011;19850;49.576;10.880;2022-11-23T23:59:21;7.47;;;5.97;;
